createdAt,value
2023-01-09T00:05:10.718Z,98386
2023-01-09T00:10:46.165Z,98387
2023-01-09T00:16:23.184Z,98385.2
2023-01-09T00:21:58.514Z,98385.6
2023-01-09T00:27:33.638Z,98386.1
2023-01-09T00:33:13.340Z,98390.8
2023-01-09T00:38:49.888Z,98398.3
2023-01-09T00:44:24.856Z,98410.4
2023-01-09T00:50:01.150Z,98393.8
2023-01-09T00:55:36.138Z,98403.9
2023-01-09T01:01:16.772Z,98401.8
2023-01-09T01:06:53.256Z,98406
2023-01-09T01:12:30.155Z,98404.9
2023-01-09T01:18:05.608Z,98433
2023-01-09T01:23:40.935Z,98446.8
2023-01-09T01:29:17.183Z,98456
2023-01-09T01:34:52.106Z,98452
2023-01-09T01:40:28.245Z,98463.3
2023-01-09T01:46:03.831Z,98454.6
2023-01-09T01:51:39.818Z,98465
2023-01-09T01:57:15.985Z,98469.7
2023-01-09T02:02:53.014Z,98481.8
2023-01-09T02:08:29.454Z,98492.3
2023-01-09T02:14:05.019Z,98496.4
2023-01-09T02:19:41.325Z,98500.6
2023-01-09T02:25:22.401Z,98507
2023-01-09T02:30:58.849Z,98530.8
2023-01-09T02:36:33.954Z,98505.9
2023-01-09T02:42:09.046Z,98507.9
2023-01-09T02:48:06.152Z,98508
2023-01-09T02:53:39.059Z,98515.1
2023-01-09T02:59:14.389Z,98522.9
2023-01-09T03:04:50.177Z,98530.5
2023-01-09T03:10:25.166Z,98529.9
2023-01-09T03:16:00.536Z,98519.1
2023-01-09T03:21:37.512Z,98508.8
2023-01-09T03:27:12.821Z,98510.1
2023-01-09T03:32:48.577Z,98520.9
2023-01-09T03:38:23.893Z,98533.4
2023-01-09T03:43:59.043Z,98545.8
2023-01-09T03:49:56.084Z,98546
2023-01-09T03:55:29.173Z,98544.7
2023-01-09T04:01:06.286Z,98560.5
2023-01-09T04:06:42.630Z,98569.6
2023-01-09T04:12:18.020Z,98571.9
2023-01-09T04:17:52.892Z,98582.6
2023-01-09T04:23:29.149Z,98586.8
2023-01-09T04:29:04.362Z,98597.2
2023-01-09T04:34:40.396Z,98620.2
2023-01-09T04:40:15.498Z,98623.7
2023-01-09T04:45:51.274Z,98625.9
2023-01-09T04:51:26.662Z,98645.5
2023-01-09T04:57:01.660Z,98637.6
2023-01-09T05:02:38.003Z,98635.6
2023-01-09T05:08:14.056Z,98641
2023-01-09T05:13:49.456Z,98644
2023-01-09T05:19:25.065Z,98645.6
2023-01-09T05:25:01.624Z,98642.1
2023-01-09T05:30:36.619Z,98651.1
2023-01-09T05:36:11.711Z,98660.2
2023-01-09T05:41:47.121Z,98668.2
2023-01-09T05:47:44.063Z,98669.6
2023-01-09T05:53:17.220Z,98692.7
2023-01-09T05:58:53.574Z,98726.5
2023-01-09T06:04:29.046Z,98727.7
2023-01-09T06:10:04.941Z,98743.2
2023-01-09T06:15:40.728Z,98748.6
2023-01-09T06:21:18.085Z,98737
2023-01-09T06:26:53.634Z,98740.4
2023-01-09T06:32:28.939Z,98745.4
2023-01-09T06:38:03.956Z,98743.7
2023-01-09T06:43:39.028Z,98732.1
2023-01-09T06:49:36.983Z,98724.8
2023-01-09T06:55:09.449Z,98733.3
2023-01-09T07:00:44.966Z,98752.4
2023-01-09T07:06:20.119Z,98763.3
2023-01-09T07:11:56.293Z,98772.4
2023-01-09T07:17:31.875Z,98773.2
2023-01-09T07:23:06.887Z,98763.4
2023-01-09T07:28:41.815Z,98786.8
2023-01-09T07:34:18.681Z,98812.2
2023-01-09T07:39:53.688Z,98822.8
2023-01-09T07:45:30.209Z,98838.1
2023-01-09T07:51:06.614Z,98838.2
2023-01-09T07:56:47.892Z,98852.5
2023-01-09T08:02:23.181Z,98861.4
2023-01-09T08:08:00.600Z,98886.1
2023-01-09T08:13:37.383Z,98854.6
2023-01-09T08:19:12.543Z,98888.2
2023-01-09T08:24:49.484Z,98879.5
2023-01-09T08:30:25.966Z,98900.6
2023-01-09T08:36:01.351Z,98894.3
2023-01-09T08:41:37.223Z,98887.7
2023-01-09T08:47:12.343Z,98898
2023-01-09T08:52:48.252Z,98915.9
2023-01-09T08:58:23.918Z,98924.2
2023-01-09T09:03:59.448Z,98937.7
2023-01-09T09:09:35.344Z,98941.2
2023-01-09T09:15:11.048Z,98951.5
2023-01-09T09:20:46.302Z,98958.2
2023-01-09T09:26:22.674Z,98960.2
2023-01-09T09:32:13.588Z,98978.5
2023-01-09T09:38:06.976Z,98990.5
2023-01-09T09:43:45.681Z,99005.5
2023-01-09T09:49:22.384Z,99008.5
2023-01-09T09:54:57.783Z,99027
2023-01-09T10:00:33.369Z,99002.8
2023-01-09T10:06:08.840Z,98993.9
2023-01-09T10:11:44.632Z,98996.8
2023-01-09T10:17:19.984Z,99003
2023-01-09T10:22:56.162Z,99016
2023-01-09T10:28:31.616Z,99014.9
2023-01-09T10:34:06.813Z,99042.4
2023-01-09T10:39:42.157Z,99049.9
2023-01-09T10:45:26.173Z,99073.8
2023-01-09T10:51:08.727Z,99068.8
2023-01-09T10:56:44.037Z,99067.6
2023-01-09T11:02:19.525Z,99072.8
2023-01-09T11:07:55.851Z,99063.3
2023-01-09T11:13:31.918Z,99045.5
2023-01-09T11:19:07.251Z,99050.4
2023-01-09T11:24:42.254Z,99060.8
2023-01-09T11:30:19.330Z,99077.8
2023-01-09T11:35:55.052Z,99050.3
2023-01-09T11:41:30.042Z,99065.7
2023-01-09T11:47:05.097Z,99050.1
2023-01-09T11:52:41.128Z,99063.4
2023-01-09T11:58:16.509Z,99104.2
2023-01-09T12:03:56.391Z,99104
2023-01-09T12:09:32.033Z,99108.2
2023-01-09T12:15:10.573Z,99114.3
2023-01-09T12:20:49.199Z,99105.5
2023-01-09T12:26:25.009Z,99098.4
2023-01-09T12:32:01.150Z,99084.2
2023-01-09T12:37:36.894Z,99105.2
2023-01-09T12:43:12.183Z,99114.3
2023-01-09T12:48:47.502Z,99108.8
2023-01-09T12:54:24.065Z,99114.9
2023-01-09T13:00:00.875Z,99120.1
2023-01-09T13:05:36.256Z,99111.7
2023-01-09T13:11:21.674Z,99103.5
2023-01-09T13:16:57.440Z,99101.1
2023-01-09T13:22:33.211Z,99103.1
2023-01-09T13:28:08.733Z,99112
2023-01-09T13:33:44.998Z,99138.1
2023-01-09T13:39:21.304Z,99144.1
2023-01-09T13:44:58.774Z,99126.7
2023-01-09T13:50:33.831Z,99131.6
2023-01-09T13:56:12.470Z,99129.8
2023-01-09T14:01:48.924Z,99128.8
2023-01-09T14:07:24.152Z,99132.7
2023-01-09T14:12:59.023Z,99156.5
2023-01-09T14:18:36.221Z,99149.6
2023-01-09T14:24:11.797Z,99189.9
2023-01-09T14:29:47.752Z,99194.1
2023-01-09T14:35:23.102Z,99201.1
2023-01-09T14:40:58.440Z,99210.9
2023-01-09T14:46:33.498Z,99216.8
2023-01-09T14:52:08.404Z,99203
2023-01-09T14:57:43.533Z,99217.5
2023-01-09T15:03:20.093Z,99220.6
2023-01-09T15:08:56.357Z,99248
2023-01-09T15:14:35.590Z,99259.2
2023-01-09T15:20:10.786Z,99264.3
2023-01-09T15:25:46.131Z,99294.4
2023-01-09T15:31:22.202Z,99316.3
2023-01-09T15:36:58.009Z,99324.2
2023-01-09T15:42:33.734Z,99322.7
2023-01-09T15:48:09.384Z,99337.5
2023-01-09T15:53:44.669Z,99344.5
2023-01-09T15:59:20.056Z,99340.7
2023-01-09T16:04:55.248Z,99355.8
2023-01-09T16:10:30.137Z,99361.5
2023-01-09T16:16:05.236Z,99377.9
2023-01-09T16:21:40.454Z,99395.4
2023-01-09T16:27:20.568Z,99403.3
2023-01-09T16:32:56.895Z,99411.1
2023-01-09T16:38:32.381Z,99419.4
2023-01-09T16:44:17.290Z,99415
2023-01-09T16:49:52.574Z,99420.4
2023-01-09T16:55:27.560Z,99411.6
2023-01-09T17:01:03.255Z,99421
2023-01-09T17:06:43.524Z,99418
2023-01-09T17:12:18.896Z,99424.5
2023-01-09T17:17:53.714Z,99441.1
2023-01-09T17:23:29.488Z,99444.3
2023-01-09T17:29:07.757Z,99450.4
2023-01-09T17:34:45.792Z,99452.4
2023-01-09T17:40:21.597Z,99469.2
2023-01-09T17:45:57.420Z,99485.3
2023-01-09T17:51:34.150Z,99474.9
2023-01-09T17:57:09.295Z,99483.9
2023-01-09T18:02:45.069Z,99503.8
2023-01-09T18:08:20.698Z,99515.3
2023-01-09T18:13:57.079Z,99526.8
2023-01-09T18:19:32.567Z,99527.4
2023-01-09T18:25:07.788Z,99533.5
2023-01-09T18:30:53.009Z,99553.8
2023-01-09T18:36:48.911Z,99555.7
2023-01-09T18:42:53.670Z,99565
2023-01-09T18:48:50.773Z,99570
2023-01-09T18:54:23.515Z,99578.9
2023-01-09T19:00:22.456Z,99582.3
2023-01-09T19:05:59.930Z,99582
2023-01-09T19:11:38.185Z,99585.9
2023-01-09T19:17:18.373Z,99587.6
2023-01-09T19:22:54.421Z,99591
2023-01-09T19:28:40.985Z,99594.3
2023-01-09T19:34:16.168Z,99592.3
2023-01-09T19:39:53.322Z,99592
2023-01-09T19:45:31.246Z,99599.9
2023-01-09T19:51:17.235Z,99608.3
2023-01-09T19:57:10.245Z,99604.7
2023-01-09T20:02:46.687Z,99612.5
2023-01-09T20:08:21.572Z,99622.5
2023-01-09T20:14:05.715Z,99625.2
2023-01-09T20:20:10.843Z,99632.8
2023-01-09T20:25:53.525Z,99632.5
2023-01-09T20:31:29.662Z,99655
2023-01-09T20:37:16.346Z,99663.1
2023-01-09T20:42:57.927Z,99653.6
2023-01-09T20:48:33.840Z,99666.3
2023-01-09T20:54:09.037Z,99669.5
2023-01-09T20:59:44.298Z,99660.7
2023-01-09T21:05:23.514Z,99664.9
2023-01-09T21:11:01.210Z,99664.9
2023-01-09T21:17:00.169Z,99660
2023-01-09T21:22:50.888Z,99662.3
2023-01-09T21:29:03.216Z,99666.4
2023-01-09T21:34:44.068Z,99678
2023-01-09T21:40:27.062Z,99666.9
2023-01-09T21:46:05.580Z,99671.7
2023-01-09T21:51:43.955Z,99679.9
2023-01-09T21:57:19.673Z,99681.8
2023-01-09T22:03:00.163Z,99684.6
2023-01-09T22:08:35.431Z,99674.2
2023-01-09T22:14:14.660Z,99691.4
2023-01-09T22:19:49.694Z,99693.1
2023-01-09T22:25:24.499Z,99701.2
2023-01-09T22:31:00.166Z,99704.1
2023-01-09T22:36:45.067Z,99700.6
2023-01-09T22:42:51.736Z,99703.7
2023-01-09T22:48:41.625Z,99699.2
2023-01-09T22:54:17.681Z,99700.1
2023-01-09T23:00:27.986Z,99698.3
2023-01-09T23:06:11.856Z,99706.5
2023-01-09T23:11:47.374Z,99710.7
2023-01-09T23:18:00.834Z,99706.8
2023-01-09T23:23:43.706Z,99708.6
2023-01-09T23:29:18.666Z,99714.4
2023-01-09T23:34:53.488Z,99702.6
2023-01-09T23:40:28.880Z,99702.3
2023-01-09T23:46:11.427Z,99704.8
2023-01-09T23:51:46.815Z,99703.6
2023-01-09T23:57:27.425Z,99671
